sensor_id;sensor_type;location;lat;lon;timestamp;pressure;altitude;pressure_sealevel;temperature;humidity
78144;BME280;67394;52.522;13.622;2023-06-10T00:00:44;100999.44;;;15.43;78.99
78144;BME280;67394;52.522;13.622;2023-06-10T00:03:11;100989.16;;;15.38;78.43
78144;BME280;67394;52.522;13.622;2023-06-10T00:05:38;100973.66;;;15.37;78.66
78144;BME280;67394;52.522;13.622;2023-06-10T00:08:05;100980.66;;;15.32;79.39
78144;BME280;67394;52.522;13.622;2023-06-10T00:10:36;100994.41;;;15.32;79.09
78144;BME280;67394;52.522;13.622;2023-06-10T00:13:03;100978.09;;;15.30;78.88
78144;BME280;67394;52.522;13.622;2023-06-10T00:15:30;100982.50;;;15.22;79.46
78144;BME280;67394;52.522;13.622;2023-06-10T00:17:57;100975.53;;;15.27;78.99
78144;BME280;67394;52.522;13.622;2023-06-10T00:20:23;100976.53;;;15.17;79.01
78144;BME280;67394;52.522;13.622;2023-06-10T00:22:50;100976.53;;;15.17;79.95
78144;BME280;67394;52.522;13.622;2023-06-10T00:25:17;100981.66;;;15.22;79.20
78144;BME280;67394;52.522;13.622;2023-06-10T00:27:43;100984.38;;;15.13;79.58
78144;BME280;67394;52.522;13.622;2023-06-10T00:30:10;100975.06;;;14.99;80.54
78144;BME280;67394;52.522;13.622;2023-06-10T00:32:36;100970.91;;;14.91;80.49
78144;BME280;67394;52.522;13.622;2023-06-10T00:35:04;100977.72;;;14.95;80.19
78144;BME280;67394;52.522;13.622;2023-06-10T00:37:31;100977.75;;;14.93;80.90
78144;BME280;67394;52.522;13.622;2023-06-10T00:39:58;100969.16;;;14.91;81.02
78144;BME280;67394;52.522;13.622;2023-06-10T00:42:24;100974.41;;;14.85;81.07
78144;BME280;67394;52.522;13.622;2023-06-10T00:44:51;100975.34;;;14.80;80.39
78144;BME280;67394;52.522;13.622;2023-06-10T00:47:18;100974.47;;;14.81;81.04
78144;BME280;67394;52.522;13.622;2023-06-10T00:49:45;100977.16;;;14.72;80.72
78144;BME280;67394;52.522;13.622;2023-06-10T00:52:13;100985.72;;;14.74;81.81
78144;BME280;67394;52.522;13.622;2023-06-10T00:54:40;100978.91;;;14.71;81.20
78144;BME280;67394;52.522;13.622;2023-06-10T00:57:07;100979.75;;;14.70;81.93
78144;BME280;67394;52.522;13.622;2023-06-10T00:59:34;100979.03;;;14.60;81.83
78144;BME280;67394;52.522;13.622;2023-06-10T01:02:00;100980.75;;;14.58;81.94
78144;BME280;67394;52.522;13.622;2023-06-10T01:04:27;100979.06;;;14.57;82.13
78144;BME280;67394;52.522;13.622;2023-06-10T01:09:46;100984.28;;;14.51;81.84
78144;BME280;67394;52.522;13.622;2023-06-10T01:12:33;100986.03;;;14.49;82.67
78144;BME280;67394;52.522;13.622;2023-06-10T01:15:01;100994.66;;;14.44;82.23
78144;BME280;67394;52.522;13.622;2023-06-10T01:17:28;100992.97;;;14.41;82.72
78144;BME280;67394;52.522;13.622;2023-06-10T01:19:56;100995.59;;;14.40;83.15
78144;BME280;67394;52.522;13.622;2023-06-10T01:22:26;100987.84;;;14.35;82.82
78144;BME280;67394;52.522;13.622;2023-06-10T01:24:55;100991.34;;;14.31;82.91
78144;BME280;67394;52.522;13.622;2023-06-10T01:27:22;100987.09;;;14.27;83.17
78144;BME280;67394;52.522;13.622;2023-06-10T01:29:58;100990.53;;;14.26;83.31
78144;BME280;67394;52.522;13.622;2023-06-10T01:32:37;100981.09;;;14.25;83.04
78144;BME280;67394;52.522;13.622;2023-06-10T01:35:08;100982.03;;;14.19;83.76
78144;BME280;67394;52.522;13.622;2023-06-10T01:37:36;100994.88;;;14.21;83.13
78144;BME280;67394;52.522;13.622;2023-06-10T01:40:05;100994.00;;;14.20;83.90
78144;BME280;67394;52.522;13.622;2023-06-10T01:42:32;100990.66;;;14.14;83.38
78144;BME280;67394;52.522;13.622;2023-06-10T01:44:59;100991.53;;;14.13;84.13
78144;BME280;67394;52.522;13.622;2023-06-10T01:47:25;100992.41;;;14.10;83.26
78144;BME280;67394;52.522;13.622;2023-06-10T01:49:52;100998.41;;;14.11;84.06
78144;BME280;67394;52.522;13.622;2023-06-10T01:52:18;100992.44;;;14.07;84.35
78144;BME280;67394;52.522;13.622;2023-06-10T01:54:45;101000.19;;;14.04;84.98
78144;BME280;67394;52.522;13.622;2023-06-10T01:57:11;100993.38;;;13.99;84.40
78144;BME280;67394;52.522;13.622;2023-06-10T01:59:38;101002.84;;;13.98;84.31
78144;BME280;67394;52.522;13.622;2023-06-10T02:02:04;100995.06;;;14.00;84.71
78144;BME280;67394;52.522;13.622;2023-06-10T02:04:31;100993.41;;;13.96;84.02
78144;BME280;67394;52.522;13.622;2023-06-10T02:06:57;100999.41;;;13.98;83.97
78144;BME280;67394;52.522;13.622;2023-06-10T02:09:25;100997.63;;;14.01;84.54
78144;BME280;67394;52.522;13.622;2023-06-10T02:11:51;100993.41;;;13.97;84.62
78144;BME280;67394;52.522;13.622;2023-06-10T02:14:17;100997.75;;;13.90;85.09
78144;BME280;67394;52.522;13.622;2023-06-10T02:16:44;100991.72;;;13.91;84.79
78144;BME280;67394;52.522;13.622;2023-06-10T02:19:10;100998.66;;;13.86;84.58
78144;BME280;67394;52.522;13.622;2023-06-10T02:21:37;100998.66;;;13.86;84.63
78144;BME280;67394;52.522;13.622;2023-06-10T02:24:03;101003.81;;;13.82;85.14
78144;BME280;67394;52.522;13.622;2023-06-10T02:26:30;101002.16;;;13.76;84.97
78144;BME280;67394;52.522;13.622;2023-06-10T02:28:56;101006.47;;;13.74;85.28
78144;BME280;67394;52.522;13.622;2023-06-10T02:31:23;101001.34;;;13.70;85.83
78144;BME280;67394;52.522;13.622;2023-06-10T02:33:49;101010.00;;;13.63;85.58
78144;BME280;67394;52.522;13.622;2023-06-10T02:36:16;101009.13;;;13.65;84.80
78144;BME280;67394;52.522;13.622;2023-06-10T02:38:42;101004.84;;;13.63;85.73
78144;BME280;67394;52.522;13.622;2023-06-10T02:41:08;101014.31;;;13.59;86.04
78144;BME280;67394;52.522;13.622;2023-06-10T02:43:35;101010.00;;;13.58;86.39
78144;BME280;67394;52.522;13.622;2023-06-10T02:46:01;101007.47;;;13.55;86.05
78144;BME280;67394;52.522;13.622;2023-06-10T02:48:28;101004.06;;;13.47;86.58
78144;BME280;67394;52.522;13.622;2023-06-10T02:50:54;100995.50;;;13.46;86.52
78144;BME280;67394;52.522;13.622;2023-06-10T02:53:21;100998.06;;;13.48;87.37
78144;BME280;67394;52.522;13.622;2023-06-10T02:55:47;101000.63;;;13.49;86.94
78144;BME280;67394;52.522;13.622;2023-06-10T02:58:14;101001.53;;;13.44;87.45
78144;BME280;67394;52.522;13.622;2023-06-10T03:00:40;101004.06;;;13.47;87.45
78144;BME280;67394;52.522;13.622;2023-06-10T03:03:06;101008.41;;;13.45;86.78
78144;BME280;67394;52.522;13.622;2023-06-10T03:05:33;101007.50;;;13.49;86.80
78144;BME280;67394;52.522;13.622;2023-06-10T03:07:59;101002.38;;;13.46;86.51
78144;BME280;67394;52.522;13.622;2023-06-10T03:10:26;101007.50;;;13.46;86.31
78144;BME280;67394;52.522;13.622;2023-06-10T03:12:52;101006.66;;;13.48;87.36
78144;BME280;67394;52.522;13.622;2023-06-10T03:15:19;101016.09;;;13.49;87.58
78144;BME280;67394;52.522;13.622;2023-06-10T03:17:45;101013.50;;;13.49;86.24
78144;BME280;67394;52.522;13.622;2023-06-10T03:20:12;101004.06;;;13.51;87.48
78144;BME280;67394;52.522;13.622;2023-06-10T03:22:38;101013.53;;;13.46;87.02
78144;BME280;67394;52.522;13.622;2023-06-10T03:25:05;101002.38;;;13.46;87.49
78144;BME280;67394;52.522;13.622;2023-06-10T03:27:32;101003.28;;;13.42;87.06
78144;BME280;67394;52.522;13.622;2023-06-10T03:29:59;101005.78;;;13.48;87.55
78144;BME280;67394;52.522;13.622;2023-06-10T03:32:25;101008.38;;;13.48;87.50
78144;BME280;67394;52.522;13.622;2023-06-10T03:34:52;101004.94;;;13.49;87.52
78144;BME280;67394;52.522;13.622;2023-06-10T03:37:18;101010.06;;;13.52;86.85
78144;BME280;67394;52.522;13.622;2023-06-10T03:39:45;101018.66;;;13.49;88.05
78144;BME280;67394;52.522;13.622;2023-06-10T03:42:11;101016.94;;;13.51;87.30
78144;BME280;67394;52.522;13.622;2023-06-10T03:44:38;101017.81;;;13.50;87.26
78144;BME280;67394;52.522;13.622;2023-06-10T03:47:04;101027.19;;;13.57;87.65
78144;BME280;67394;52.522;13.622;2023-06-10T03:49:31;101020.31;;;13.58;87.40
78144;BME280;67394;52.522;13.622;2023-06-10T03:51:57;101020.31;;;13.61;87.27
78144;BME280;67394;52.522;13.622;2023-06-10T03:54:24;101021.16;;;13.65;87.02
78144;BME280;67394;52.522;13.622;2023-06-10T03:56:50;101025.44;;;13.63;86.12
78144;BME280;67394;52.522;13.622;2023-06-10T03:59:17;101022.88;;;13.61;87.28
78144;BME280;67394;52.522;13.622;2023-06-10T04:01:43;101030.53;;;13.70;86.75
78144;BME280;67394;52.522;13.622;2023-06-10T04:04:09;101032.25;;;13.73;86.64
78144;BME280;67394;52.522;13.622;2023-06-10T04:06:36;101037.38;;;13.76;87.19
78144;BME280;67394;52.522;13.622;2023-06-10T04:09:02;101034.78;;;13.77;86.58
78144;BME280;67394;52.522;13.622;2023-06-10T04:11:29;101027.88;;;13.79;86.60
78144;BME280;67394;52.522;13.622;2023-06-10T04:13:55;101033.03;;;13.79;86.18
78144;BME280;67394;52.522;13.622;2023-06-10T04:16:21;101036.47;;;13.80;86.98
78144;BME280;67394;52.522;13.622;2023-06-10T04:18:48;101031.28;;;13.87;85.52
78144;BME280;67394;52.522;13.622;2023-06-10T04:21:14;101034.63;;;13.97;86.51
78144;BME280;67394;52.522;13.622;2023-06-10T04:23:41;101038.88;;;14.04;85.87
78144;BME280;67394;52.522;13.622;2023-06-10T04:26:07;101041.34;;;14.15;85.96
78144;BME280;67394;52.522;13.622;2023-06-10T04:28:34;101033.53;;;14.22;84.70
78144;BME280;67394;52.522;13.622;2023-06-10T04:31:00;101040.38;;;14.29;84.55
78144;BME280;67394;52.522;13.622;2023-06-10T04:33:26;101049.75;;;14.34;83.74
78144;BME280;67394;52.522;13.622;2023-06-10T04:35:53;101052.28;;;14.43;83.66
78144;BME280;67394;52.522;13.622;2023-06-10T04:38:19;101041.81;;;14.61;84.36
78144;BME280;67394;52.522;13.622;2023-06-10T04:40:45;101050.22;;;14.75;83.77
78144;BME280;67394;52.522;13.622;2023-06-10T04:43:12;101053.53;;;14.88;83.35
78144;BME280;67394;52.522;13.622;2023-06-10T04:45:38;101049.06;;;15.04;82.04
78144;BME280;67394;52.522;13.622;2023-06-10T04:48:05;101059.13;;;15.22;81.87
78144;BME280;67394;52.522;13.622;2023-06-10T04:50:32;101053.00;;;15.30;80.89
78144;BME280;67394;52.522;13.622;2023-06-10T04:52:58;101057.97;;;15.44;80.27
78144;BME280;67394;52.522;13.622;2023-06-10T04:55:25;101055.25;;;15.53;80.86
78144;BME280;67394;52.522;13.622;2023-06-10T04:57:51;101062.88;;;15.64;80.46
78144;BME280;67394;52.522;13.622;2023-06-10T05:00:18;101061.94;;;15.68;79.89
78144;BME280;67394;52.522;13.622;2023-06-10T05:02:44;101066.16;;;15.77;78.99
78144;BME280;67394;52.522;13.622;2023-06-10T05:05:11;101073.81;;;15.81;79.33
78144;BME280;67394;52.522;13.622;2023-06-10T05:07:37;101064.16;;;15.94;80.11
78144;BME280;67394;52.522;13.622;2023-06-10T05:10:04;101064.78;;;16.08;78.99
78144;BME280;67394;52.522;13.622;2023-06-10T05:12:31;101068.84;;;16.21;79.04
78144;BME280;67394;52.522;13.622;2023-06-10T05:14:57;101078.06;;;16.37;78.53
78144;BME280;67394;52.522;13.622;2023-06-10T05:17:24;101077.09;;;16.44;77.75
78144;BME280;67394;52.522;13.622;2023-06-10T05:19:51;101079.56;;;16.52;77.42
78144;BME280;67394;52.522;13.622;2023-06-10T05:22:17;101078.56;;;16.59;77.01
78144;BME280;67394;52.522;13.622;2023-06-10T05:24:44;101083.72;;;16.62;76.89
78144;BME280;67394;52.522;13.622;2023-06-10T05:27:10;101080.88;;;16.74;77.51
78144;BME280;67394;52.522;13.622;2023-06-10T05:29:37;101082.44;;;16.83;76.33
78144;BME280;67394;52.522;13.622;2023-06-10T05:32:03;101081.66;;;16.79;75.75
78144;BME280;67394;52.522;13.622;2023-06-10T05:34:30;101080.09;;;16.71;75.80
78144;BME280;67394;52.522;13.622;2023-06-10T05:36:57;101084.38;;;16.73;76.49
78144;BME280;67394;52.522;13.622;2023-06-10T05:39:23;101086.19;;;16.68;76.19
78144;BME280;67394;52.522;13.622;2023-06-10T05:41:50;101092.22;;;16.69;76.32
78144;BME280;67394;52.522;13.622;2023-06-10T05:44:16;101081.78;;;16.73;75.95
78144;BME280;67394;52.522;13.622;2023-06-10T05:46:43;101080.78;;;16.79;76.07
78144;BME280;67394;52.522;13.622;2023-06-10T05:49:09;101080.75;;;16.82;75.82
78144;BME280;67394;52.522;13.622;2023-06-10T05:51:35;101083.34;;;16.82;75.32
78144;BME280;67394;52.522;13.622;2023-06-10T05:54:03;101084.97;;;16.86;76.21
78144;BME280;67394;52.522;13.622;2023-06-10T05:56:30;101090.97;;;16.88;74.53
78144;BME280;67394;52.522;13.622;2023-06-10T05:58:56;101086.59;;;16.92;75.39
78144;BME280;67394;52.522;13.622;2023-06-10T06:01:23;101088.22;;;16.96;75.28
78144;BME280;67394;52.522;13.622;2023-06-10T06:03:49;101082.16;;;16.97;74.92
78144;BME280;67394;52.522;13.622;2023-06-10T06:06:16;101097.47;;;17.09;75.32
78144;BME280;67394;52.522;13.622;2023-06-10T06:08:42;101094.63;;;17.21;74.67
78144;BME280;67394;52.522;13.622;2023-06-10T06:11:09;101089.41;;;17.23;74.44
78144;BME280;67394;52.522;13.622;2023-06-10T06:13:37;101099.59;;;17.32;73.90
78144;BME280;67394;52.522;13.622;2023-06-10T06:16:04;101096.50;;;17.54;74.11
78144;BME280;67394;52.522;13.622;2023-06-10T06:18:30;101097.78;;;17.77;73.20
78144;BME280;67394;52.522;13.622;2023-06-10T06:20:57;101098.34;;;17.89;73.29
78144;BME280;67394;52.522;13.622;2023-06-10T06:23:23;101093.81;;;17.98;72.78
78144;BME280;67394;52.522;13.622;2023-06-10T06:25:49;101096.03;;;18.13;72.56
78144;BME280;67394;52.522;13.622;2023-06-10T06:28:16;101093.91;;;18.28;71.98
78144;BME280;67394;52.522;13.622;2023-06-10T06:30:42;101098.84;;;18.39;70.93
78144;BME280;67394;52.522;13.622;2023-06-10T06:33:09;101096.06;;;18.45;71.71
78144;BME280;67394;52.522;13.622;2023-06-10T06:35:35;101107.88;;;18.57;71.14
78144;BME280;67394;52.522;13.622;2023-06-10T06:38:02;101110.97;;;18.73;71.11
78144;BME280;67394;52.522;13.622;2023-06-10T06:40:28;101115.06;;;18.81;70.12
78144;BME280;67394;52.522;13.622;2023-06-10T06:42:55;101117.41;;;18.90;69.85
78144;BME280;67394;52.522;13.622;2023-06-10T06:45:22;101116.16;;;19.05;69.51
78144;BME280;67394;52.522;13.622;2023-06-10T06:47:48;101118.53;;;19.13;68.81
78144;BME280;67394;52.522;13.622;2023-06-10T06:50:15;101123.06;;;19.35;69.07
78144;BME280;67394;52.522;13.622;2023-06-10T06:52:41;101123.72;;;19.42;67.76
78144;BME280;67394;52.522;13.622;2023-06-10T06:55:08;101119.63;;;19.64;67.86
78144;BME280;67394;52.522;13.622;2023-06-10T06:57:35;101119.25;;;19.77;66.94
78144;BME280;67394;52.522;13.622;2023-06-10T07:00:02;101121.88;;;20.03;67.05
78144;BME280;67394;52.522;13.622;2023-06-10T07:02:28;101119.03;;;20.38;65.37
78144;BME280;67394;52.522;13.622;2023-06-10T07:04:55;101123.00;;;20.49;64.29
78144;BME280;67394;52.522;13.622;2023-06-10T07:07:22;101123.56;;;20.58;63.43
78144;BME280;67394;52.522;13.622;2023-06-10T07:09:48;101128.16;;;20.76;63.23
78144;BME280;67394;52.522;13.622;2023-06-10T07:12:14;101123.72;;;20.78;62.00
78144;BME280;67394;52.522;13.622;2023-06-10T07:14:41;101130.53;;;20.82;62.49
78144;BME280;67394;52.522;13.622;2023-06-10T07:17:07;101133.09;;;20.84;62.01
78144;BME280;67394;52.522;13.622;2023-06-10T07:19:34;101135.38;;;20.93;62.27
78144;BME280;67394;52.522;13.622;2023-06-10T07:22:00;101142.38;;;20.91;60.95
78144;BME280;67394;52.522;13.622;2023-06-10T07:24:27;101142.47;;;20.88;60.46
78144;BME280;67394;52.522;13.622;2023-06-10T07:26:53;101144.72;;;20.99;60.52
78144;BME280;67394;52.522;13.622;2023-06-10T07:29:20;101142.22;;;21.21;60.07
78144;BME280;67394;52.522;13.622;2023-06-10T07:31:46;101146.69;;;21.40;59.62
78144;BME280;67394;52.522;13.622;2023-06-10T07:34:12;101144.25;;;21.59;60.14
78144;BME280;67394;52.522;13.622;2023-06-10T07:36:39;101143.44;;;21.80;59.04
78144;BME280;67394;52.522;13.622;2023-06-10T07:39:05;101150.66;;;21.96;58.10
78144;BME280;67394;52.522;13.622;2023-06-10T07:41:32;101152.69;;;22.11;57.96
78144;BME280;67394;52.522;13.622;2023-06-10T07:43:58;101157.53;;;22.20;57.58
78144;BME280;67394;52.522;13.622;2023-06-10T07:46:25;101157.38;;;22.24;57.09
78144;BME280;67394;52.522;13.622;2023-06-10T07:48:51;101155.28;;;22.33;57.56
78144;BME280;67394;52.522;13.622;2023-06-10T07:51:18;101155.88;;;22.39;55.82
78144;BME280;67394;52.522;13.622;2023-06-10T07:53:44;101158.25;;;22.45;56.65
78144;BME280;67394;52.522;13.622;2023-06-10T07:56:11;101165.69;;;22.54;56.38
78144;BME280;67394;52.522;13.622;2023-06-10T07:58:37;101158.38;;;22.62;55.58
78144;BME280;67394;52.522;13.622;2023-06-10T08:01:03;101158.78;;;22.53;55.76
78144;BME280;67394;52.522;13.622;2023-06-10T08:03:30;101158.50;;;22.59;56.07
78144;BME280;67394;52.522;13.622;2023-06-10T08:05:56;101154.13;;;22.60;55.99
78144;BME280;67394;52.522;13.622;2023-06-10T08:08:23;101154.47;;;22.93;56.07
78144;BME280;67394;52.522;13.622;2023-06-10T08:10:49;101156.81;;;22.99;55.22
78144;BME280;67394;52.522;13.622;2023-06-10T08:13:16;101151.69;;;23.16;55.42
78144;BME280;67394;52.522;13.622;2023-06-10T08:15:42;101155.06;;;23.39;55.48
78144;BME280;67394;52.522;13.622;2023-06-10T08:18:09;101155.81;;;23.61;54.47
78144;BME280;67394;52.522;13.622;2023-06-10T08:20:35;101147.38;;;23.73;54.64
78144;BME280;67394;52.522;13.622;2023-06-10T08:23:02;101148.75;;;23.99;53.91
78144;BME280;67394;52.522;13.622;2023-06-10T08:25:28;101161.53;;;24.24;52.60
78144;BME280;67394;52.522;13.622;2023-06-10T08:27:54;101162.31;;;24.26;51.70
78144;BME280;67394;52.522;13.622;2023-06-10T08:30:21;101168.81;;;24.36;51.93
78144;BME280;67394;52.522;13.622;2023-06-10T08:32:47;101167.50;;;24.44;50.85
78144;BME280;67394;52.522;13.622;2023-06-10T08:35:14;101174.34;;;24.64;50.06
78144;BME280;67394;52.522;13.622;2023-06-10T08:37:40;101175.13;;;24.66;50.46
78144;BME280;67394;52.522;13.622;2023-06-10T08:40:07;101174.03;;;24.70;49.44
78144;BME280;67394;52.522;13.622;2023-06-10T08:42:47;101172.34;;;24.87;50.54
78144;BME280;67394;52.522;13.622;2023-06-10T08:45:18;101177.88;;;25.15;49.69
78144;BME280;67394;52.522;13.622;2023-06-10T08:47:45;101173.88;;;25.57;49.03
78144;BME280;67394;52.522;13.622;2023-06-10T08:50:12;101171.28;;;25.72;46.90
78144;BME280;67394;52.522;13.622;2023-06-10T08:52:44;101162.94;;;25.48;47.41
78144;BME280;67394;52.522;13.622;2023-06-10T08:55:16;101172.81;;;25.43;46.49
78144;BME280;67394;52.522;13.622;2023-06-10T08:57:44;101175.38;;;25.45;47.27
78144;BME280;67394;52.522;13.622;2023-06-10T09:00:12;101176.09;;;25.64;47.29
78144;BME280;67394;52.522;13.622;2023-06-10T09:02:39;101177.53;;;25.85;46.61
78144;BME280;67394;52.522;13.622;2023-06-10T09:05:06;101177.31;;;25.74;46.37
78144;BME280;67394;52.522;13.622;2023-06-10T09:07:35;101175.59;;;25.89;45.57
78144;BME280;67394;52.522;13.622;2023-06-10T09:10:03;101169.56;;;26.03;45.53
78144;BME280;67394;52.522;13.622;2023-06-10T09:12:30;101176.09;;;26.11;45.40
78144;BME280;67394;52.522;13.622;2023-06-10T09:14:56;101182.03;;;26.15;45.05
78144;BME280;67394;52.522;13.622;2023-06-10T09:17:24;101170.13;;;26.23;44.60
78144;BME280;67394;52.522;13.622;2023-06-10T09:19:52;101176.63;;;26.02;44.48
78144;BME280;67394;52.522;13.622;2023-06-10T09:22:18;101176.00;;;26.13;45.12
78144;BME280;67394;52.522;13.622;2023-06-10T09:24:46;101177.94;;;26.25;43.91
78144;BME280;67394;52.522;13.622;2023-06-10T09:27:13;101173.19;;;26.32;43.83
78144;BME280;67394;52.522;13.622;2023-06-10T09:29:53;101177.84;;;26.27;43.71
78144;BME280;67394;52.522;13.622;2023-06-10T09:32:20;101184.78;;;26.43;43.88
78144;BME280;67394;52.522;13.622;2023-06-10T09:34:47;101186.69;;;26.10;46.54
78144;BME280;67394;52.522;13.622;2023-06-10T09:37:23;101193.66;;;25.64;47.44
78144;BME280;67394;52.522;13.622;2023-06-10T09:42:32;101201.84;;;24.90;48.75
78144;BME280;67394;52.522;13.622;2023-06-10T09:44:59;101200.84;;;25.43;46.98
78144;BME280;67394;52.522;13.622;2023-06-10T09:47:25;101197.72;;;25.69;47.31
78144;BME280;67394;52.522;13.622;2023-06-10T09:49:51;101194.84;;;25.89;46.36
78144;BME280;67394;52.522;13.622;2023-06-10T09:52:25;101190.41;;;26.37;46.54
78144;BME280;67394;52.522;13.622;2023-06-10T09:54:52;101187.72;;;26.53;43.11
78144;BME280;67394;52.522;13.622;2023-06-10T09:57:21;101191.44;;;26.35;44.27
78144;BME280;67394;52.522;13.622;2023-06-10T09:59:48;101192.88;;;26.24;43.72
78144;BME280;67394;52.522;13.622;2023-06-10T10:02:19;101189.88;;;25.85;44.79
78144;BME280;67394;52.522;13.622;2023-06-10T10:04:45;101188.47;;;25.78;43.61
78144;BME280;67394;52.522;13.622;2023-06-10T10:07:12;101188.03;;;26.17;43.73
78144;BME280;67394;52.522;13.622;2023-06-10T10:09:40;101181.88;;;26.78;41.36
78144;BME280;67394;52.522;13.622;2023-06-10T10:12:12;101187.13;;;27.08;40.11
78144;BME280;67394;52.522;13.622;2023-06-10T10:14:39;101197.09;;;27.31;40.81
78144;BME280;67394;52.522;13.622;2023-06-10T10:17:10;101198.19;;;27.13;40.42
78144;BME280;67394;52.522;13.622;2023-06-10T10:19:41;101199.06;;;26.69;40.79
78144;BME280;67394;52.522;13.622;2023-06-10T10:22:15;101193.38;;;26.31;41.21
78144;BME280;67394;52.522;13.622;2023-06-10T10:24:53;101189.41;;;26.08;43.06
78144;BME280;67394;52.522;13.622;2023-06-10T10:27:27;101189.66;;;25.88;42.50
78144;BME280;67394;52.522;13.622;2023-06-10T10:29:54;101177.13;;;25.93;42.39
78144;BME280;67394;52.522;13.622;2023-06-10T10:32:27;101184.59;;;25.85;41.68
78144;BME280;67394;52.522;13.622;2023-06-10T10:35:09;101183.75;;;25.84;41.60
78144;BME280;67394;52.522;13.622;2023-06-10T10:37:39;101178.06;;;25.61;40.10
78144;BME280;67394;52.522;13.622;2023-06-10T10:40:06;101179.84;;;25.43;39.49
78144;BME280;67394;52.522;13.622;2023-06-10T10:42:34;101170.13;;;25.45;40.02
78144;BME280;67394;52.522;13.622;2023-06-10T10:45:02;101172.31;;;25.37;40.78
78144;BME280;67394;52.522;13.622;2023-06-10T10:47:30;101167.06;;;25.21;41.20
78144;BME280;67394;52.522;13.622;2023-06-10T10:49:57;101166.56;;;25.30;41.99
78144;BME280;67394;52.522;13.622;2023-06-10T10:52:23;101170.53;;;25.37;41.70
78144;BME280;67394;52.522;13.622;2023-06-10T10:54:53;101177.78;;;25.49;41.73
78144;BME280;67394;52.522;13.622;2023-06-10T10:57:21;101170.25;;;25.75;42.14
78144;BME280;67394;52.522;13.622;2023-06-10T11:02:18;101167.66;;;26.66;39.14
78144;BME280;67394;52.522;13.622;2023-06-10T11:04:48;101165.59;;;27.15;39.54
78144;BME280;67394;52.522;13.622;2023-06-10T11:07:20;101165.09;;;27.23;37.95
78144;BME280;67394;52.522;13.622;2023-06-10T11:10:10;101163.22;;;27.53;36.75
78144;BME280;67394;52.522;13.622;2023-06-10T11:15:13;101168.00;;;28.02;38.60
78144;BME280;67394;52.522;13.622;2023-06-10T11:21:01;101164.56;;;27.32;40.34
78144;BME280;67394;52.522;13.622;2023-06-10T11:31:22;101180.75;;;27.12;41.65
78144;BME280;67394;52.522;13.622;2023-06-10T11:33:53;101178.63;;;27.74;40.75
78144;BME280;67394;52.522;13.622;2023-06-10T11:36:21;101178.22;;;28.21;39.34
78144;BME280;67394;52.522;13.622;2023-06-10T11:38:48;101164.06;;;28.61;37.73
78144;BME280;67394;52.522;13.622;2023-06-10T11:41:14;101173.63;;;28.37;37.63
78144;BME280;67394;52.522;13.622;2023-06-10T11:43:44;101170.47;;;28.45;37.83
78144;BME280;67394;52.522;13.622;2023-06-10T11:46:14;101160.50;;;28.23;38.39
78144;BME280;67394;52.522;13.622;2023-06-10T11:48:55;101155.91;;;28.12;39.14
78144;BME280;67394;52.522;13.622;2023-06-10T11:51:25;101156.31;;;28.33;39.76
78144;BME280;67394;52.522;13.622;2023-06-10T11:53:52;101160.03;;;28.16;39.63
78144;BME280;67394;52.522;13.622;2023-06-10T11:56:26;101151.94;;;28.19;39.35
78144;BME280;67394;52.522;13.622;2023-06-10T11:58:55;101156.38;;;28.71;38.53
78144;BME280;67394;52.522;13.622;2023-06-10T12:01:23;101147.81;;;29.18;38.48
78144;BME280;67394;52.522;13.622;2023-06-10T12:04:12;101142.97;;;29.37;38.47
78144;BME280;67394;52.522;13.622;2023-06-10T12:06:52;101139.69;;;29.34;37.48
78144;BME280;67394;52.522;13.622;2023-06-10T12:09:28;101144.78;;;28.99;37.68
78144;BME280;67394;52.522;13.622;2023-06-10T12:12:04;101150.03;;;28.48;38.00
78144;BME280;67394;52.522;13.622;2023-06-10T12:14:54;101143.84;;;29.12;37.57
78144;BME280;67394;52.522;13.622;2023-06-10T12:17:22;101124.66;;;29.71;37.15
78144;BME280;67394;52.522;13.622;2023-06-10T12:19:50;101127.00;;;29.75;36.95
78144;BME280;67394;52.522;13.622;2023-06-10T12:22:17;101128.13;;;30.08;36.84
78144;BME280;67394;52.522;13.622;2023-06-10T12:24:45;101132.25;;;30.23;35.99
78144;BME280;67394;52.522;13.622;2023-06-10T12:27:12;101123.38;;;30.24;36.44
78144;BME280;67394;52.522;13.622;2023-06-10T12:29:38;101132.28;;;30.69;35.13
78144;BME280;67394;52.522;13.622;2023-06-10T12:32:05;101131.94;;;30.85;35.44
78144;BME280;67394;52.522;13.622;2023-06-10T12:34:36;101117.63;;;30.41;34.80
78144;BME280;67394;52.522;13.622;2023-06-10T12:37:06;101122.81;;;29.97;34.37
78144;BME280;67394;52.522;13.622;2023-06-10T12:39:33;101123.41;;;30.35;34.83
78144;BME280;67394;52.522;13.622;2023-06-10T12:42:00;101109.34;;;30.46;34.14
78144;BME280;67394;52.522;13.622;2023-06-10T12:44:33;101111.88;;;30.36;33.86
78144;BME280;67394;52.522;13.622;2023-06-10T12:47:06;101101.59;;;30.20;34.76
78144;BME280;67394;52.522;13.622;2023-06-10T12:49:33;101100.66;;;30.79;35.23
78144;BME280;67394;52.522;13.622;2023-06-10T12:51:59;101106.69;;;30.92;34.73
78144;BME280;67394;52.522;13.622;2023-06-10T12:54:25;101098.25;;;31.09;33.14
78144;BME280;67394;52.522;13.622;2023-06-10T12:56:52;101091.03;;;31.11;33.93
78144;BME280;67394;52.522;13.622;2023-06-10T12:59:18;101089.09;;;30.91;33.81
78144;BME280;67394;52.522;13.622;2023-06-10T13:01:53;101082.13;;;31.12;33.92
78144;BME280;67394;52.522;13.622;2023-06-10T13:04:20;101092.69;;;30.21;34.52